Sao Gabriel da Cachoeira, Brazil
Current Conditions -  °F | °C
As of 7:00 PM on Thursday 23 Oct 2014 (Local Time) from SBUA Reporting Station
Thunderstorm Thunderstorm  
Wind Chill: 82°   Ceiling: 8200
Heat Index: 91°   Visibility: 6mi
Dew Point: 77°   Wind: 5mph
Humidity: 84%   Direction: 100°E
Pressure: 29.77"   Gusts: NA
Location:  0.13°S, 67.09°W
Report Text: SBUA 232300Z 10004KT 9999 TS FEW023 FEW030CB BKN082 28/25 Q1008
Loading
Personal Weather Stations






























Interactive Weather Map
Tropical Storm Tracking
New forecast layout! Learn more

10-Day Weather Forecast

Advertisements
Track Severe Weather on mobile